Home > Products > Valid Products > TAF

000
FTUS43 KPAH 242300
TAFEVV
TAF
KEVV 242320Z 2500/2524 VRB03KT P6SM SCT250
     FM250900 VRB02KT 6SM BR SCT040 BKN250
     FM251300 24005KT P6SM SCT040 BKN100
     FM251800 29007KT P6SM SCT100 BKN250=



000
FTUS43 KPAH 242300
TAFPAH
TAF
KPAH 242320Z 2500/2524 VRB03KT P6SM SCT250
     FM250900 VRB02KT 5SM BR SCT040 BKN250
     FM251400 25005KT P6SM BKN250
     FM251800 31006KT P6SM SCT250=



000
FTUS43 KPAH 242300
TAFCGI
TAF
KCGI 242320Z 2500/2524 VRB03KT P6SM SCT250
     FM250700 VRB02KT 2SM BR MIFG SCT040 BKN250
     FM251300 26005KT P6SM BKN250
     FM251700 32006KT P6SM SCT250=



000
FTUS43 KPAH 241700
TAFPAH
TAF
KPAH 241720Z 2418/2518 VRB04KT P6SM SCT030
     FM250000 VRB02KT P6SM SCT250
     FM250900 23002KT 5SM BR SCT020
     FM251300 28006KT P6SM SKC=



000
FTUS43 KPAH 241700
TAFEVV
TAF
KEVV 241720Z 2418/2518 VRB04KT P6SM SCT035 BKN250
     FM250000 VRB02KT P6SM SCT250
     FM250900 20002KT 6SM BR SCT020
     FM251300 28006KT P6SM SKC=



000
FTUS43 KPAH 241700
TAFCGI
TAF
KCGI 241720Z 2418/2518 25004KT P6SM SCT030 BKN250
     FM250000 VRB02KT P6SM BKN250
     FM250700 23002KT 2SM BR MIFG SCT250
     FM251300 28006KT P6SM SKC=



000
FTUS43 KPAH 241100
TAFEVV
TAF
KEVV 241123Z 2412/2512 00000KT P6SM OVC035
     FM241700 23004KT P6SM SCT035 BKN250
     FM250000 VRB02KT P6SM SCT250
     FM250900 20002KT 5SM BR SCT020=



000
FTUS43 KPAH 241100
TAFCGI
TAF
KCGI 241123Z 2412/2512 00000KT P6SM BKN025
     FM241600 25004KT P6SM SCT030 BKN250
     FM250000 VRB02KT P6SM SCT250
     FM250900 23002KT 5SM BR SCT020=



000
FTUS43 KPAH 241100
TAFPAH
TAF
KPAH 241123Z 2412/2512 00000KT P6SM SCT050
      TEMPO 2412/2416 5SM BR BKN025
     FM241600 26005KT P6SM SCT030 BKN250
     FM250000 VRB02KT P6SM SCT250
     FM250900 23002KT 5SM BR SCT020=



000
FTUS43 KPAH 240900 AAA
TAFPAH
TAF AMD
KPAH 240928Z 2409/2506 00000KT P6SM SCT050
      TEMPO 2410/2414 5SM BR BKN050
     FM241400 VRB03KT P6SM SCT150
     FM250100 VRB02KT P6SM SCT250=



000
FTUS43 KPAH 240900 AAB
TAFCGI
TAF AMD
KCGI 240923Z 2409/2506 00000KT P6SM BKN040
     FM241200 00000KT 4SM BR SCT040
     FM241400 VRB03KT P6SM SCT150
     FM250100 VRB02KT P6SM SCT250=



000
FTUS43 KPAH 240700 AAA
TAFEVV
TAF AMD
KEVV 240723Z 2407/2506 00000KT P6SM BKN045
     FM241000 00000KT 6SM BR BKN040 BKN100
     FM241400 VRB03KT P6SM BKN040
     FM250100 VRB02KT P6SM SCT250=



000
FTUS43 KPAH 240700 AAA
TAFPAH
TAF AMD
KPAH 240721Z 2407/2506 00000KT 4SM BR SCT150
     FM240900 00000KT 5SM BR BKN060
     FM241400 VRB03KT P6SM SCT150
     FM250100 VRB02KT P6SM SCT250=



000
FTUS43 KPAH 240700 AAA
TAFCGI
TAF AMD
KCGI 240717Z 2407/2506 00000KT P6SM BKN050
     FM241000 00000KT 4SM BR SCT040
     FM241400 VRB03KT P6SM SCT150
     FM250100 VRB02KT P6SM SCT250=



000
FTUS43 KPAH 240500
TAFPAH
TAF
KPAH 240520Z 2406/2506 00000KT 4SM BR BKN150
      TEMPO 2409/2413 2SM BR
     FM241500 VRB03KT P6SM SCT150
     FM250100 VRB02KT P6SM SCT250=



000
FTUS43 KPAH 240500
TAFCGI
TAF
KCGI 240520Z 2406/2506 00000KT P6SM BKN150
     FM241000 00000KT 4SM BR SCT040
     FM241500 VRB03KT P6SM SCT150
     FM250100 VRB02KT P6SM SCT250=



000
FTUS43 KPAH 240500
TAFEVV
TAF
KEVV 240520Z 2406/2506 00000KT P6SM SCT040 SCT150
      TEMPO 2406/2410 4SM BR
     FM241000 00000KT 4SM BR BKN040 BKN100
     FM241500 VRB03KT P6SM BKN040
     FM250100 VRB02KT P6SM SCT250=



000
FTUS43 KPAH 232300
TAFPAH
TAF
KPAH 232320Z 2400/2424 00000KT P6SM BKN150
     FM241500 VRB03KT P6SM SCT150=



000
FTUS43 KPAH 232300
TAFEVV
TAF
KEVV 232320Z 2400/2424 00000KT P6SM BKN150
     FM241500 VRB03KT P6SM BKN100=



000
FTUS43 KPAH 232300
TAFCGI
TAF
KCGI 232320Z 2400/2424 00000KT P6SM BKN150
     FM241500 VRB03KT P6SM SCT150=



000
FTUS43 KPAH 231700
TAFPAH
TAF
KPAH 231733Z 2318/2418 14004KT P6SM BKN250
     FM240100 00000KT P6SM SCT060 BKN150=



000
FTUS43 KPAH 231700
TAFEVV
TAF
KEVV 231733Z 2318/2418 14003KT P6SM BKN250
     FM240100 00000KT P6SM BKN150=



000
FTUS43 KPAH 231700
TAFCGI
TAF
KCGI 231733Z 2318/2418 16004KT P6SM BKN250
     FM240100 00000KT P6SM SCT060 BKN150=



000
FTUS43 KPAH 231200 AAA
TAFEVV
TAF AMD
KEVV 231227Z 2312/2412 00000KT 5SM BR FEW250
     FM231400 14003KT P6SM BKN250
     FM240100 00000KT P6SM BKN150=



000
FTUS43 KPAH 231100
TAFCGI
TAF
KCGI 231122Z 2312/2412 00000KT 4SM BR MIFG BKN250
      TEMPO 2312/2313 1SM BR VV005
     FM231400 16004KT P6SM BKN250
     FM240100 00000KT P6SM SCT060 BKN150=



000
FTUS43 KPAH 231100
TAFEVV
TAF
KEVV 231122Z 2312/2412 00000KT 6SM BR FEW250
     FM231400 14003KT 6SM BR BKN250
     FM240100 00000KT P6SM BKN150=



000
FTUS43 KPAH 231100
TAFPAH
TAF
KPAH 231122Z 2312/2412 00000KT 3SM BR MIFG SCT250
      TEMPO 2312/2313 2SM BR MIFG
     FM231400 14004KT P6SM BKN250
     FM240100 00000KT P6SM SCT060 BKN150=



000
FTUS43 KPAH 231000 AAA
TAFPAH
TAF AMD
KPAH 231023Z 2310/2406 00000KT P6SM MIFG SKC
      TEMPO 2310/2313 2SM BR MIFG
     FM231400 VRB03KT P6SM SCT250
     FM240100 00000KT P6SM SCT250=



000
FTUS43 KPAH 230900 AAA
TAFCGI
TAF AMD
KCGI 230909Z 2309/2406 00000KT 4SM BR MIFG SKC
      TEMPO 2309/2313 3/4SM BR VV002
     FM231400 VRB03KT P6SM SCT250
     FM240100 00000KT P6SM SCT250=



000
FTUS43 KPAH 230600 AAA
TAFPAH
TAF AMD
KPAH 230604Z 2306/2406 00000KT P6SM MIFG SKC
     FM230900 00000KT 3SM BR MIFG SKC
     FM231500 VRB03KT P6SM SCT250
     FM240100 00000KT P6SM SCT250=



000
FTUS43 KPAH 230500
TAFCGI
TAF
KCGI 230520Z 2306/2406 00000KT P6SM SKC
     FM230900 00000KT 3SM BR MIFG SCT250
     FM231500 VRB03KT P6SM SCT250
     FM240100 00000KT P6SM SCT250=



000
FTUS43 KPAH 230500
TAFPAH
TAF
KPAH 230520Z 2306/2406 00000KT P6SM SKC
     FM230900 00000KT 3SM BR MIFG SKC
     FM231500 VRB03KT P6SM SCT250
     FM240100 00000KT P6SM SCT250=



000
FTUS43 KPAH 230500
TAFEVV
TAF
KEVV 230520Z 2306/2406 00000KT P6SM SKC
     FM231000 00000KT 6SM BR SKC
     FM231500 VRB03KT P6SM SCT250
     FM240100 00000KT P6SM SCT250=



000
FTUS43 KPAH 222300
TAFCGI
TAF
KCGI 222320Z 2300/2324 VRB04KT P6SM SKC
     FM230200 00000KT P6SM SKC
     FM230900 00000KT 3SM BR MIFG SCT250
     FM231500 VRB03KT P6SM SCT250=



000
FTUS43 KPAH 222300
TAFEVV
TAF
KEVV 222320Z 2300/2324 VRB02KT P6SM SKC
     FM231000 00000KT 6SM BR SKC
     FM231500 VRB03KT P6SM SCT250=



000
FTUS43 KPAH 222300
TAFPAH
TAF
KPAH 222320Z 2300/2324 VRB04KT P6SM SKC
     FM230200 00000KT P6SM SKC
     FM230900 00000KT 3SM BR MIFG SKC
     FM231500 VRB03KT P6SM SCT250=



000
FTUS43 KPAH 221700 RRA
TAFPAH
TAF
KPAH 221744Z 2218/2318 05005KT P6SM SKC
     FM230100 00000KT P6SM SKC
     FM230900 00000KT 3SM BR MIFG SKC=



000
FTUS43 KPAH 221700 RRA
TAFEVV
TAF
KEVV 221744Z 2218/2318 03004KT P6SM SKC
     FM231000 00000KT 6SM BR SKC=



000
FTUS43 KPAH 221700 RRA
TAFCGI
TAF
KCGI 221744Z 2218/2318 06007KT P6SM SKC
     FM230100 00000KT P6SM SKC
     FM230900 00000KT 3SM BR MIFG SCT250=



000
FTUS43 KPAH 221700 RRA
TAFCGI
TAF
KCGI 221744Z 2218/2318 06007KT P6SM SKC
     FM230100 00000KT P6SM SKC
     FM230900 00000KT 3SM BR MIFG SCT250=



000
FTUS43 KPAH 221700 RRA
TAFPAH
TAF
KPAH 221744Z 2218/2318 05005KT P6SM SKC
     FM230100 00000KT P6SM SKC
     FM230900 00000KT 3SM BR MIFG SKC=



000
FTUS43 KPAH 221700 RRA
TAFEVV
TAF
KEVV 221744Z 2218/2318 03004KT P6SM SKC
     FM231000 00000KT 6SM BR SKC=



000
FTUS43 KPAH 221100
TAFEVV
TAF
KEVV 221120Z 2212/2312 03004KT P6SM SKC
     FM231000 00000KT 6SM BR SKC=



000
FTUS43 KPAH 221100
TAFCGI
TAF
KCGI 221120Z 2212/2312 00000KT 4SM BR MIFG SKC
     FM221300 06007KT P6SM SKC
     FM230100 00000KT P6SM SKC
     FM230900 00000KT 3SM BR MIFG SCT250=



000
FTUS43 KPAH 221100
TAFPAH
TAF
KPAH 221120Z 2212/2312 05005KT P6SM SKC
     FM230100 00000KT P6SM SKC
     FM230900 00000KT 3SM BR MIFG SKC=



000
FTUS43 KPAH 221000 AAB
TAFCGI
TAF AMD
KCGI 221012Z 2210/2306 00000KT P6SM SKC
     FM221400 06007KT P6SM SKC
     FM230000 00000KT P6SM SKC=



000
FTUS43 KPAH 221000 AAB
TAFCGI
TAF AMD
KCGI 221012Z 2210/2306 00000KT P6SM SKC
     FM221400 06007KT P6SM SKC
     FM230000 00000KT P6SM SKC=



000
FTUS43 KPAH 220800 AAA
TAFCGI
TAF AMD
KCGI 220807Z 2208/2306 05003KT P6SM SKC
      TEMPO 2211/2213 00000KT 4SM BR MIFG
     FM221400 06007KT P6SM SKC
     FM230000 00000KT P6SM SKC=



000
FTUS43 KPAH 220500
TAFCGI
TAF
KCGI 220520Z 2206/2306 04004KT P6SM SKC
      TEMPO 2209/2213 00000KT 4SM BR MIFG
     FM221400 06007KT P6SM SKC
     FM230000 00000KT P6SM SKC=



000
FTUS43 KPAH 220500
TAFEVV
TAF
KEVV 220520Z 2206/2306 03003KT P6SM SKC=



000
FTUS43 KPAH 220500
TAFPAH
TAF
KPAH 220520Z 2206/2306 05005KT P6SM SKC=



000
FTUS43 KPAH 220500
TAFEVV
TAF
KEVV 220520Z 2206/2306 03003KT P6SM SKC=



000
FTUS43 KPAH 220500
TAFPAH
TAF
KPAH 220520Z 2206/2306 05005KT P6SM SKC=



000
FTUS43 KPAH 220500
TAFCGI
TAF
KCGI 220520Z 2206/2306 04004KT P6SM SKC
      TEMPO 2209/2213 00000KT 4SM BR MIFG
     FM221400 06007KT P6SM SKC
     FM230000 00000KT P6SM SKC=



    US Dept of Commerce
    National Oceanic and Atmospheric Administration
    National Weather Service
    1325 East West Highway
    Silver Spring, MD 20910
    Page Author: NWS Internet Services Team
Disclaimer
Information Quality
Credits
Glossary
Privacy Policy
Freedom of Information Act (FOIA)
About Us
Career Opportunities